createdAt,value
2023-01-29T03:54:57.914Z,-6.91
2023-01-29T03:57:35.730Z,-6.78
2023-01-29T04:00:22.807Z,-6.62
2023-01-29T04:03:18.112Z,-6.45
2023-01-29T04:05:51.795Z,-6.28
2023-01-29T04:08:29.064Z,-6.14
2023-01-29T04:11:00.277Z,-6.00
2023-01-29T04:13:30.118Z,-5.96
2023-01-29T04:16:01.849Z,-5.92
2023-01-29T04:18:55.973Z,-5.80
2023-01-29T04:21:32.011Z,-5.72
2023-01-29T04:24:00.619Z,-5.63
2023-01-29T04:26:47.514Z,-5.58
2023-01-29T04:29:22.287Z,-5.56
2023-01-29T04:32:18.966Z,-5.57
2023-01-29T04:34:47.507Z,-5.60
2023-01-29T04:37:42.511Z,-5.55
2023-01-29T04:40:15.391Z,-5.45
2023-01-29T04:42:54.904Z,-5.36
2023-01-29T04:45:26.997Z,-5.30
2023-01-29T04:48:16.020Z,-5.28
2023-01-29T04:50:55.244Z,-5.27
2023-01-29T04:53:54.611Z,-5.21
2023-01-29T04:56:53.778Z,-5.11
2023-01-29T04:59:30.834Z,-5.05
2023-01-29T05:02:00.312Z,-5.08
2023-01-29T05:04:29.993Z,-5.10
2023-01-29T05:07:01.609Z,-5.09
2023-01-29T05:09:29.937Z,-5.04
2023-01-29T05:11:58.101Z,-4.97
2023-01-29T05:14:26.374Z,-4.91
2023-01-29T05:16:54.519Z,-4.92
2023-01-29T05:19:22.642Z,-4.91
2023-01-29T05:21:51.027Z,-4.85
2023-01-29T05:24:23.933Z,-4.76
2023-01-29T05:27:12.606Z,-4.68
2023-01-29T05:29:43.806Z,-4.61
2023-01-29T05:32:11.928Z,-4.61
2023-01-29T05:34:43.722Z,-4.60
2023-01-29T05:37:12.578Z,-4.54
2023-01-29T05:39:40.722Z,-4.47
2023-01-29T05:42:08.852Z,-4.40
2023-01-29T05:44:37.098Z,-4.36
2023-01-29T05:47:05.313Z,-4.35
2023-01-29T05:49:33.399Z,-4.36
2023-01-29T05:52:01.868Z,-4.38
2023-01-29T05:54:30.369Z,-4.34
2023-01-29T05:56:58.485Z,-4.29
2023-01-29T05:59:26.761Z,-4.23
2023-01-29T06:01:54.855Z,-4.19
2023-01-29T06:04:23.163Z,-4.19
2023-01-29T06:06:52.221Z,-4.22
2023-01-29T06:09:20.304Z,-4.23
2023-01-29T06:11:48.486Z,-4.17
2023-01-29T06:14:16.882Z,-4.09
2023-01-29T06:16:45.150Z,-3.99
2023-01-29T06:19:13.315Z,-3.92
2023-01-29T06:21:42.386Z,-3.92
2023-01-29T06:24:10.559Z,-3.93
2023-01-29T06:26:39.966Z,-3.94
2023-01-29T06:29:08.313Z,-3.89
2023-01-29T06:31:39.307Z,-3.82
2023-01-29T06:34:08.159Z,-3.77
2023-01-29T06:36:36.334Z,-3.76
2023-01-29T06:39:05.146Z,-3.76
2023-01-29T06:41:33.553Z,-3.69
2023-01-29T06:44:01.803Z,-3.62
2023-01-29T06:46:30.198Z,-3.57
2023-01-29T06:49:00.553Z,-3.59
2023-01-29T06:51:37.546Z,-3.58
2023-01-29T06:54:08.417Z,-3.57
2023-01-29T06:56:36.879Z,-3.50
2023-01-29T06:59:05.047Z,-3.43
2023-01-29T07:01:36.380Z,-3.37
2023-01-29T07:04:05.196Z,-3.36
2023-01-29T07:06:33.545Z,-3.37
2023-01-29T07:09:03.427Z,-3.34
2023-01-29T07:11:37.911Z,-3.27
2023-01-29T07:14:06.192Z,-3.19
2023-01-29T07:16:34.473Z,-3.14
2023-01-29T07:19:02.759Z,-3.11
2023-01-29T07:21:32.118Z,-3.07
2023-01-29T07:24:00.304Z,-2.99
2023-01-29T07:26:28.641Z,-2.95
2023-01-29T07:28:57.025Z,-2.95
2023-01-29T07:31:25.227Z,-2.95
2023-01-29T07:33:54.147Z,-2.95
2023-01-29T07:36:24.223Z,-2.90
2023-01-29T07:38:52.381Z,-2.85
2023-01-29T07:41:24.011Z,-2.85
2023-01-29T12:10:04.517Z,-1.41
2023-01-29T12:12:41.729Z,-1.26
2023-01-29T12:15:26.226Z,-1.07
2023-01-29T12:18:04.508Z,-0.90
2023-01-29T12:20:48.014Z,-0.79
2023-01-29T12:23:41.303Z,-0.74
2023-01-29T12:26:13.715Z,-0.69
2023-01-29T12:29:14.114Z,-0.54
2023-01-29T12:31:54.959Z,-0.39
2023-01-29T12:34:43.645Z,-0.40
2023-01-29T12:37:46.082Z,-0.39
2023-01-29T12:40:16.529Z,-0.31
2023-01-29T12:42:47.610Z,-0.32
2023-01-29T12:45:20.342Z,-0.36
2023-01-29T12:48:01.565Z,-0.33
2023-01-29T12:50:33.308Z,-0.33
2023-01-29T12:53:19.946Z,-0.36
2023-01-29T12:56:00.505Z,-0.30
2023-01-29T12:58:42.614Z,-0.28
2023-01-29T13:01:34.546Z,-0.27
2023-01-29T13:04:06.367Z,-0.24
2023-01-29T13:06:41.507Z,-0.11
2023-01-29T13:09:13.406Z,-0.03
2023-01-29T13:12:09.860Z,-0.08
2023-01-29T13:14:59.007Z,-0.15
2023-01-29T13:17:58.364Z,-0.15
2023-01-29T13:20:30.225Z,-0.11
2023-01-29T13:23:03.556Z,-0.11
2023-01-29T13:25:31.731Z,-0.12
2023-01-29T13:28:00.750Z,-0.14
2023-01-29T13:30:33.266Z,-0.12
2023-01-29T13:33:11.395Z,-0.08
2023-01-29T13:36:00.448Z,-0.09
2023-01-29T13:38:30.534Z,-0.11
2023-01-29T13:41:06.265Z,-0.15
2023-01-29T13:43:36.879Z,-0.14
2023-01-29T13:46:15.057Z,-0.13
2023-01-29T13:48:48.599Z,-0.17
2023-01-29T13:51:20.828Z,-0.25
2023-01-29T13:53:54.207Z,-0.30
2023-01-29T13:56:35.499Z,-0.30
2023-01-29T13:59:05.562Z,-0.27
2023-01-29T14:01:49.194Z,-0.29
2023-01-29T14:04:23.082Z,-0.35
2023-01-29T14:07:03.130Z,-0.41
2023-01-29T14:10:17.382Z,-0.45
2023-01-29T14:13:21.249Z,-0.42
2023-01-29T14:15:58.485Z,-0.42
2023-01-29T14:18:27.803Z,-0.47
2023-01-29T14:21:07.048Z,-0.50
2023-01-29T14:23:48.446Z,-0.52
2023-01-29T14:26:29.130Z,-0.56
2023-01-29T14:29:21.631Z,-0.51
2023-01-29T14:32:07.121Z,-0.44
2023-01-29T14:34:36.493Z,-0.46
2023-01-29T14:37:16.911Z,-0.52
2023-01-29T14:39:51.236Z,-0.57
2023-01-29T14:42:28.872Z,-0.60
2023-01-29T14:45:21.633Z,-0.60
2023-01-29T14:47:49.672Z,-0.58
2023-01-29T14:50:32.810Z,-0.56
2023-01-29T14:53:19.731Z,-0.57
2023-01-29T14:55:59.489Z,-0.62
2023-01-29T14:58:47.241Z,-0.65
2023-01-29T15:01:35.863Z,-0.65
2023-01-29T15:04:22.789Z,-0.61
2023-01-29T15:07:06.514Z,-0.54
2023-01-29T15:09:39.598Z,-0.58
2023-01-29T15:12:33.474Z,-0.64
2023-01-29T15:15:10.253Z,-0.67
2023-01-29T15:17:42.904Z,-0.70
2023-01-29T15:20:31.153Z,-0.65
2023-01-29T15:23:00.305Z,-0.61
2023-01-29T15:25:28.663Z,-0.62
2023-01-29T15:27:56.972Z,-0.67
2023-01-29T15:30:33.390Z,-0.70
2023-01-29T15:33:02.648Z,-0.73
2023-01-29T15:35:39.538Z,-0.74
2023-01-29T15:38:15.078Z,-0.71
2023-01-29T15:40:53.961Z,-0.68
2023-01-29T15:43:28.665Z,-0.77
2023-01-29T15:45:59.964Z,-0.86
2023-01-29T19:44:20.201Z,-3.04
2023-01-29T19:46:48.583Z,-2.91
2023-01-29T19:49:16.780Z,-2.74
2023-01-29T19:51:46.162Z,-2.59
2023-01-29T19:54:14.328Z,-2.45
2023-01-29T19:56:42.435Z,-2.36
2023-01-29T19:59:11.960Z,-2.30
2023-01-29T20:01:40.089Z,-2.24
2023-01-29T20:04:08.218Z,-2.20
2023-01-29T20:06:36.673Z,-2.14
2023-01-29T20:09:04.972Z,-2.04
2023-01-29T20:11:34.013Z,-1.93
2023-01-29T20:14:03.681Z,-1.88
2023-01-29T20:16:32.046Z,-1.87
2023-01-29T20:19:14.127Z,-1.85
2023-01-29T20:21:46.454Z,-1.86
2023-01-29T20:24:14.780Z,-1.88
2023-01-29T20:26:44.152Z,-1.89
2023-01-29T20:29:13.365Z,-1.83
2023-01-29T20:31:41.598Z,-1.76
2023-01-29T20:34:10.065Z,-1.77
2023-01-29T20:36:38.807Z,-1.79
2023-01-29T20:39:06.879Z,-1.80
2023-01-29T20:41:36.737Z,-1.80
2023-01-29T20:44:05.259Z,-1.80
2023-01-29T20:46:35.526Z,-1.76
2023-01-29T20:49:06.843Z,-1.71
2023-01-29T20:51:36.362Z,-1.70
2023-01-29T20:54:04.522Z,-1.71
2023-01-29T20:56:37.082Z,-1.75
2023-01-29T20:59:09.835Z,-1.76
2023-01-29T21:01:37.869Z,-1.80
2023-01-29T21:04:05.916Z,-1.80
2023-01-29T21:06:34.173Z,-1.78
2023-01-29T21:09:04.081Z,-1.72
2023-01-29T21:11:33.732Z,-1.71
2023-01-29T21:14:02.071Z,-1.73
2023-01-29T21:16:30.507Z,-1.75
2023-01-29T21:18:58.936Z,-1.77
2023-01-29T21:21:27.329Z,-1.79
2023-01-29T21:23:55.687Z,-1.80
2023-01-29T21:26:24.139Z,-1.75
2023-01-29T21:28:52.780Z,-1.71
2023-01-29T21:31:22.307Z,-1.72
2023-01-29T21:33:50.563Z,-1.76
2023-01-29T21:36:18.942Z,-1.80
2023-01-29T21:38:47.320Z,-1.84
2023-01-29T21:41:15.477Z,-1.88
2023-01-29T21:43:44.827Z,-1.93
2023-01-29T21:46:13.400Z,-1.95
2023-01-29T21:48:42.477Z,-1.90
2023-01-29T21:51:10.813Z,-1.84
2023-01-29T21:53:39.041Z,-1.86
2023-01-29T21:56:07.712Z,-1.89
2023-01-29T21:58:35.940Z,-1.92
2023-01-29T22:01:38.142Z,-1.97
2023-01-29T22:04:11.580Z,-2.01
2023-01-29T22:06:40.289Z,-2.03
2023-01-29T22:09:10.152Z,-1.99
2023-01-29T22:11:41.419Z,-1.94
2023-01-29T22:14:10.966Z,-1.93
2023-01-29T22:16:39.985Z,-1.95
2023-01-29T22:19:08.230Z,-1.95
2023-01-29T22:21:36.872Z,-1.91
2023-01-29T22:24:05.457Z,-1.88
2023-01-29T22:26:33.962Z,-1.87
2023-01-29T22:29:02.356Z,-1.87
2023-01-29T22:31:30.730Z,-1.87
2023-01-29T22:33:59.004Z,-1.81
2023-01-29T22:36:27.048Z,-1.74
2023-01-29T22:38:55.147Z,-1.73
2023-01-29T22:41:23.569Z,-1.74
2023-01-29T22:43:51.908Z,-1.74
2023-01-29T22:46:20.024Z,-1.73
2023-01-29T22:48:48.228Z,-1.75
2023-01-29T22:51:16.333Z,-1.77
2023-01-29T22:53:55.102Z,-1.78
2023-01-29T22:56:25.760Z,-1.78
2023-01-29T22:58:54.992Z,-1.72
2023-01-29T23:01:28.465Z,-1.65
2023-01-29T23:03:57.442Z,-1.64
2023-01-29T23:06:25.642Z,-1.67
2023-01-29T23:08:53.678Z,-1.72
2023-01-29T23:11:23.554Z,-1.73
2023-01-29T23:13:54.485Z,-1.73
2023-01-29T23:16:26.836Z,-1.71
2023-01-29T23:18:56.517Z,-1.64
2023-01-29T23:21:25.217Z,-1.62
2023-01-29T23:23:58.296Z,-1.63
2023-01-29T23:27:02.118Z,-1.63
2023-01-29T23:29:30.232Z,-1.65
2023-01-29T23:31:58.530Z,-1.67
2023-01-29T23:34:26.633Z,-1.67
2023-01-29T23:36:54.819Z,-1.63
2023-01-29T23:39:22.882Z,-1.57
2023-01-29T23:41:51.125Z,-1.55
